Terminal Aerodrome Forecast
Issued by NWS

Home | Current Version | Previous Version | Text Only | Print | Product List | Glossary Off
Versions: 1 2 3 4 5 6 7 8 9 10 11 12 13 14 15 16 17 18 19 20 21 22 23 24 25 26 27 28 29 30 31 32 33

000
FTUS43 KLOT 021600 AAB
TAFORD
TAF AMD
KORD 021643Z 0217/0318 34006KT P6SM FEW250
     FM021900 VRB03KT P6SM SCT120 BKN200
     FM030000 15006KT P6SM BKN080 OVC100
     FM030900 15008KT P6SM BKN050 OVC080
     FM031100 15012KT 1 1/2SM -SN BR BKN010 OVC045
     FM031300 15012G18KT 1SM -PLSN BR OVC007
     FM031500 16013G21KT 2SM -FZRAPL BR OVC004=

USA.gov is the U.S. government's official web portal to all federal, state and local government web resources and services.